Time;durP1;ratioP1;P1;durP2;ratioP2;P2;SDS_P1;SDS_P2;PMS_P1;PMS_P2;Temp;Humidity;BMP_temperature;BMP_pressure;BME280_temperature;BME280_humidity;BME280_pressure;Samples;Min_cycle;Max_cycle;Signal;HPM_P1;HPM_P2
2022/10/01 00:00:20;;;;;;;;;;;;;;;8.51;84.52;96634.19;30001;983;1871;-55
2022/10/01 00:00:52;;;;;;;;;;;;;;;8.52;84.37;96636.62;30001;983;1872;-53
2022/10/01 00:01:23;;;;;;;;;;;;;;;8.49;84.19;96631.78;30001;983;1885;-53
2022/10/01 00:01:54;;;;;;;;;;;;;;;8.47;84.02;96633.97;30001;983;1880;-55
2022/10/01 00:02:25;;;;;;;;;;;;;;;8.48;84.09;96634.78;30001;982;1885;-54
2022/10/01 00:02:56;;;;;;;;;;;;;;;8.50;84.32;96630.69;30001;982;1881;-54
2022/10/01 00:03:28;;;;;;;;;;;;;;;8.49;84.10;96634.50;30001;982;1885;-54
2022/10/01 00:03:59;;;;;;;;;;;;;;;8.47;84.09;96644.78;30001;982;1881;-54
2022/10/01 00:04:34;;;;;;;;;;;;;;;8.40;84.34;96639.69;30001;982;1872;-59
2022/10/01 00:05:06;;;;;;;;;;;;;;;8.37;84.79;96642.16;30001;982;1770;-53
2022/10/01 00:05:36;;;;;;;;;;;;;;;8.35;84.60;96647.03;30001;983;1884;-59
2022/10/01 00:06:10;;;;;;;;;;;;;;;8.35;85.00;96638.94;30001;983;1880;-58
2022/10/01 00:06:41;;;;;;;;;;;;;;;8.36;85.00;96643.25;30001;983;1885;-53
2022/10/01 00:07:13;;;;;;;;;;;;;;;8.32;85.25;96644.88;30001;983;1880;-53
2022/10/01 00:07:45;;;;;;;;;;;;;;;8.31;85.36;96640.59;30001;983;1884;-53
2022/10/01 00:08:16;;;;;;;;;;;;;;;8.31;85.45;96649.50;30001;983;1793;-53
2022/10/01 00:08:47;;;;;;;;;;;;;;;8.30;85.69;96657.91;30001;983;1885;-54
2022/10/01 00:09:19;;;;;;;;;;;;;;;8.27;85.35;96642.25;30001;983;1880;-53
2022/10/01 00:09:50;;;;;;;;;;;;;;;8.28;85.47;96654.66;30001;982;1872;-54
2022/10/01 00:10:22;;;;;;;;;;;;;;;8.28;85.71;96651.97;30001;982;1872;-53
2022/10/01 00:10:53;;;;;;;;;;;;;;;8.29;85.75;96659.00;30001;982;1885;-54
2022/10/01 00:11:25;;;;;;;;;;;;;;;8.29;85.81;96648.19;30001;982;1881;-58
2022/10/01 00:11:58;;;;;;;;;;;;;;;8.27;85.57;96655.75;30001;982;1885;-55
2022/10/01 00:12:29;;;;;;;;;;;;;;;8.24;85.88;96648.22;30001;983;1880;-54
2022/10/01 00:13:00;;;;;;;;;;;;;;;8.23;86.07;96643.91;30001;983;1884;-54
2022/10/01 00:13:31;;;;;;;;;;;;;;;8.23;85.98;96644.69;30001;983;1880;-53
2022/10/01 00:14:02;;;;;;;;;;;;;;;8.21;86.14;96646.06;30001;983;1885;-55
2022/10/01 00:14:37;;;;;;;;;;;;;;;8.21;86.25;96641.47;30001;983;1880;-55
2022/10/01 00:15:09;;;;;;;;;;;;;;;8.20;86.06;96642.56;30001;983;1871;-55
2022/10/01 00:15:40;;;;;;;;;;;;;;;8.19;86.42;96632.03;30001;983;1871;-56
2022/10/01 00:16:13;;;;;;;;;;;;;;;8.21;86.21;96629.84;30001;983;1885;-56
2022/10/01 00:16:44;;;;;;;;;;;;;;;8.21;86.40;96636.06;30001;983;1880;-56
2022/10/01 00:17:18;;;;;;;;;;;;;;;8.23;85.96;96638.50;30001;982;1885;-54
2022/10/01 00:17:50;;;;;;;;;;;;;;;8.26;86.29;96637.94;30001;982;1881;-55
2022/10/01 00:18:21;;;;;;;;;;;;;;;8.30;85.88;96628.16;30001;982;1885;-54
2022/10/01 00:18:52;;;;;;;;;;;;;;;8.28;85.58;96631.16;30001;982;1881;-60
2022/10/01 00:19:23;;;;;;;;;;;;;;;8.31;85.58;96630.59;30001;982;1872;-62
2022/10/01 00:19:54;;;;;;;;;;;;;;;8.28;85.43;96630.34;30001;983;1871;-56
2022/10/01 00:20:25;;;;;;;;;;;;;;;8.31;85.98;96624.37;30001;983;1884;-56
2022/10/01 00:20:56;;;;;;;;;;;;;;;8.34;85.67;96627.31;30001;983;1880;-56
2022/10/01 00:21:28;;;;;;;;;;;;;;;8.31;85.35;96629.78;30001;983;1884;-56
2022/10/01 00:21:59;;;;;;;;;;;;;;;8.30;85.58;96628.16;30001;983;1880;-56
2022/10/01 00:22:31;;;;;;;;;;;;;;;8.24;85.60;96630.09;30001;983;1885;-57
2022/10/01 00:23:02;;;;;;;;;;;;;;;8.30;85.54;96628.16;30001;983;1867;-55
2022/10/01 00:23:33;;;;;;;;;;;;;;;8.31;85.65;96624.37;30001;983;1876;-56
2022/10/01 00:24:05;;;;;;;;;;;;;;;8.28;85.91;96631.16;30001;983;1881;-56
2022/10/01 00:24:37;;;;;;;;;;;;;;;8.25;85.93;96629.00;30001;983;1885;-57
2022/10/01 00:25:08;;;;;;;;;;;;;;;8.23;85.96;96627.69;30001;982;1881;-57
2022/10/01 00:25:40;;;;;;;;;;;;;;;8.26;86.25;96632.53;30001;982;1885;-56
2022/10/01 00:26:14;;;;;;;;;;;;;;;8.26;86.15;96632.53;30001;982;1868;-56
2022/10/01 00:26:46;;;;;;;;;;;;;;;8.23;86.36;96627.69;30001;982;1876;-55
2022/10/01 00:27:17;;;;;;;;;;;;;;;8.18;86.38;96633.13;30001;983;1880;-55
2022/10/01 00:27:48;;;;;;;;;;;;;;;8.13;86.81;96635.88;30001;983;1884;-56
2022/10/01 00:28:19;;;;;;;;;;;;;;;8.14;86.85;96632.06;30001;983;1867;-55
2022/10/01 00:28:58;;;;;;;;;;;;;;;8.22;87.09;96634.19;30001;983;1876;-56
2022/10/01 00:29:30;;;;;;;;;;;;;;;8.23;86.86;96633.91;30001;983;1880;-56
2022/10/01 00:30:03;;;;;;;;;;;;;;;8.20;86.83;96634.47;30001;961;1907;-56
2022/10/01 00:30:34;;;;;;;;;;;;;;;8.22;86.70;96631.47;30001;958;1905;-56
2022/10/01 00:31:06;;;;;;;;;;;;;;;8.22;86.71;96631.47;30001;983;1885;-57
2022/10/01 00:31:37;;;;;;;;;;;;;;;8.22;86.74;96637.69;30001;982;1881;-59
2022/10/01 00:32:08;;;;;;;;;;;;;;;8.25;86.77;96639.81;30001;982;1885;-56
2022/10/01 00:32:40;;;;;;;;;;;;;;;8.23;86.99;96643.91;30001;982;1881;-55
2022/10/01 00:33:11;;;;;;;;;;;;;;;8.22;86.76;96642.28;30001;982;1885;-57
2022/10/01 00:33:42;;;;;;;;;;;;;;;8.25;86.91;96649.81;30001;982;1868;-55
2022/10/01 00:34:14;;;;;;;;;;;;;;;8.22;86.84;96642.28;30001;982;1877;-56
2022/10/01 00:34:47;;;;;;;;;;;;;;;8.21;86.97;96640.66;30001;983;1867;-56
2022/10/01 00:35:21;;;;;;;;;;;;;;;8.17;87.05;96640.44;30001;983;1876;-56
2022/10/01 00:35:55;;;;;;;;;;;;;;;8.13;87.46;96638.56;30001;983;1880;-55
2022/10/01 00:36:27;;;;;;;;;;;;;;;8.10;87.27;96639.13;30001;983;1885;-56
2022/10/01 00:36:58;;;;;;;;;;;;;;;8.13;87.80;96630.47;30001;983;1880;-56
2022/10/01 00:37:29;;;;;;;;;;;;;;;8.12;87.38;96629.66;30001;983;1885;-57
2022/10/01 00:38:00;;;;;;;;;;;;;;;8.10;87.49;96631.03;30001;983;1880;-56
2022/10/01 00:38:32;;;;;;;;;;;;;;;8.07;87.55;96618.88;30001;983;1885;-56
2022/10/01 00:39:03;;;;;;;;;;;;;;;8.08;87.96;96621.31;30001;982;1863;-55
2022/10/01 00:39:35;;;;;;;;;;;;;;;8.08;87.62;96618.59;30001;982;1872;-57
2022/10/01 00:40:07;;;;;;;;;;;;;;;8.12;87.73;96624.25;30001;982;1863;-57
2022/10/01 00:40:41;;;;;;;;;;;;;;;8.14;87.73;96618.56;30001;982;1872;-56
2022/10/01 00:41:12;;;;;;;;;;;;;;;8.17;87.77;96623.41;30001;982;1792;-59
2022/10/01 00:41:43;;;;;;;;;;;;;;;8.16;87.72;96621.78;30001;982;1881;-59
2022/10/01 00:42:16;;;;;;;;;;;;;;;8.18;87.62;96625.81;30001;982;1876;-60
2022/10/01 00:42:48;;;;;;;;;;;;;;;8.19;87.24;96621.22;30001;983;1880;-56
2022/10/01 00:43:20;;;;;;;;;;;;;;;8.16;87.52;96621.78;30001;983;1876;-56
2022/10/01 00:43:54;;;;;;;;;;;;;;;8.15;87.62;96625.59;30001;983;1867;-56
2022/10/01 00:44:28;;;;;;;;;;;;;;;8.14;87.49;96624.78;30001;983;1867;-56
2022/10/01 00:45:02;;;;;;;;;;;;;;;8.19;87.40;96621.22;30001;983;1880;-57
2022/10/01 00:45:33;;;;;;;;;;;;;;;8.15;87.59;96620.97;30001;983;1876;-56
2022/10/01 00:47:38;;;;;;;;;;;;;;;8.08;87.55;96621.31;89988;930;16000;-57
2022/10/01 00:48:09;;;;;;;;;;;;;;;8.07;87.71;96622.41;30001;983;1864;-56
2022/10/01 00:48:46;;;;;;;;;;;;;;;8.08;87.84;96617.78;30001;982;1868;-56
2022/10/01 00:49:19;;;;;;;;;;;;;;;8.07;87.71;96622.41;30001;982;1868;-57
2022/10/01 00:49:52;;;;;;;;;;;;;;;8.13;87.55;96625.06;30001;982;1868;-56
2022/10/01 00:50:27;;;;;;;;;;;;;;;8.17;87.50;96623.41;30001;982;1882;-55
2022/10/01 00:50:58;;;;;;;;;;;;;;;8.19;87.38;96626.63;30001;982;1877;-55
2022/10/01 00:51:31;;;;;;;;;;;;;;;8.23;87.24;96627.69;30001;982;1881;-58
2022/10/01 00:52:06;;;;;;;;;;;;;;;8.21;87.22;96621.75;30001;983;1876;-57
2022/10/01 00:52:39;;;;;;;;;;;;;;;8.19;87.09;96629.34;30001;983;1881;-56
2022/10/01 00:53:11;;;;;;;;;;;;;;;8.18;86.95;96630.41;30001;983;1877;-56
2022/10/01 00:53:43;;;;;;;;;;;;;;;8.16;87.24;96638.00;30001;983;1881;-57
2022/10/01 00:54:25;;;;;;;;;;;;;;;8.12;87.22;96636.97;30001;983;1877;-56
2022/10/01 00:54:59;;;;;;;;;;;;;;;8.04;87.43;96638.38;30001;983;1868;-55
2022/10/01 00:55:38;;;;;;;;;;;;;;;8.06;87.65;96644.28;30001;983;1868;-55
2022/10/01 00:56:09;;;;;;;;;;;;;;;8.05;87.71;96639.97;30001;982;1881;-56
2022/10/01 00:56:41;;;;;;;;;;;;;;;8.06;87.78;96647.81;30001;982;1877;-58
2022/10/01 00:57:14;;;;;;;;;;;;;;;8.04;87.99;96641.06;30001;982;1882;-56
2022/10/01 00:57:46;;;;;;;;;;;;;;;8.10;87.64;96639.13;30001;982;1877;-55
2022/10/01 00:58:17;;;;;;;;;;;;;;;8.12;87.71;96642.34;30001;982;1882;-55
2022/10/01 00:58:50;;;;;;;;;;;;;;;8.10;87.54;96647.25;30001;983;1876;-56
2022/10/01 00:59:21;;;;;;;;;;;;;;;8.07;87.47;96648.59;30001;983;1868;-60
2022/10/01 00:59:58;;;;;;;;;;;;;;;8.06;87.83;96644.28;30001;983;1868;-61
2022/10/01 01:00:30;;;;;;;;;;;;;;;8.03;87.90;96640.25;30001;983;1881;-56
2022/10/01 01:01:01;;;;;;;;;;;;;;;8.00;87.96;96640.81;30001;959;1901;-57
2022/10/01 01:01:35;;;;;;;;;;;;;;;8.02;88.18;96641.34;30001;983;1881;-63
2022/10/01 01:02:06;;;;;;;;;;;;;;;8.01;88.07;96637.03;30001;983;1877;-56
2022/10/01 01:02:37;;;;;;;;;;;;;;;8.06;87.80;96639.69;30001;983;1868;-57
2022/10/01 01:03:08;;;;;;;;;;;;;;;8.08;87.93;96637.53;30001;987;1868;-56
2022/10/01 01:03:40;;;;;;;;;;;;;;;8.06;87.67;96642.41;30001;977;1874;-56
2022/10/01 01:04:15;;;;;;;;;;;;;;;8.02;87.68;96641.34;30001;982;1868;-57
2022/10/01 01:04:47;;;;;;;;;;;;;;;8.02;87.86;96635.94;30001;982;1868;-54
2022/10/01 01:05:18;;;;;;;;;;;;;;;8.00;87.83;96645.41;30001;982;1868;-57
2022/10/01 01:05:49;;;;;;;;;;;;;;;8.00;87.93;96630.00;30001;982;1882;-55
2022/10/01 01:06:20;;;;;;;;;;;;;;;7.98;88.01;96629.50;30001;983;1863;-55
2022/10/01 01:06:57;;;;;;;;;;;;;;;8.01;87.97;96631.63;30001;983;1872;-55
2022/10/01 01:07:30;;;;;;;;;;;;;;;7.99;88.08;96633.81;30001;983;1877;-55
2022/10/01 01:08:02;;;;;;;;;;;;;;;7.99;88.13;96633.00;30001;983;1881;-56
2022/10/01 01:08:33;;;;;;;;;;;;;;;8.03;87.93;96629.44;30001;969;1891;-56
2022/10/01 01:09:04;;;;;;;;;;;;;;;8.03;87.74;96628.66;30001;983;1881;-56
2022/10/01 01:09:37;;;;;;;;;;;;;;;8.01;87.67;96625.41;30001;983;1877;-55
2022/10/01 01:10:08;;;;;;;;;;;;;;;8.00;87.57;96616.50;30001;983;1881;-56
2022/10/01 01:11:00;;;;;;;;;;;;;;;7.99;87.90;96631.09;30001;983;1864;-55
2022/10/01 01:11:40;;;;;;;;;;;;;;;7.98;87.57;96626.78;30001;982;1855;-55
2022/10/01 01:12:32;;;;;;;;;;;;;;;7.98;87.61;96626.78;30001;982;1877;-55
2022/10/01 01:13:29;;;;;;;;;;;;;;;8.03;87.73;96629.44;30001;982;1882;-56
2022/10/01 01:14:03;;;;;;;;;;;;;;;8.01;87.18;96623.53;30001;983;1872;-56
2022/10/01 01:14:45;;;;;;;;;;;;;;;7.98;87.31;96629.50;30001;983;1868;-55
2022/10/01 01:15:26;;;;;;;;;;;;;;;7.95;87.48;96632.78;30001;983;1868;-56
2022/10/01 01:16:18;;;;;;;;;;;;;;;7.94;87.68;96620.34;30001;983;1868;-56
2022/10/01 01:16:53;;;;;;;;;;;;;;;7.93;87.91;96632.25;30001;983;1868;-56
2022/10/01 01:17:32;;;;;;;;;;;;;;;7.97;87.77;96624.41;30001;983;1881;-55
2022/10/01 01:18:20;;;;;;;;;;;;;;;7.97;87.38;96627.88;30001;983;1877;-57
2022/10/01 01:19:02;;;;;;;;;;;;;;;7.99;86.94;96635.69;30001;982;1873;-55
2022/10/01 01:19:52;;;;;;;;;;;;;;;7.99;86.93;96630.28;30001;982;1877;-55
2022/10/01 01:20:49;;;;;;;;;;;;;;;7.96;86.90;96620.06;30001;982;1877;-55
2022/10/01 01:21:24;;;;;;;;;;;;;;;7.93;87.34;96624.16;30001;976;1877;-57
2022/10/01 01:21:59;;;;;;;;;;;;;;;7.94;87.43;96625.75;30001;983;1872;-56
2022/10/01 01:22:32;;;;;;;;;;;;;;;7.94;87.38;96625.75;30001;983;1863;-56
2022/10/01 01:23:22;;;;;;;;;;;;;;;7.96;87.27;96629.00;30001;983;1872;-56
2022/10/01 01:24:16;;;;;;;;;;;;;;;7.94;87.33;96612.25;30001;983;1872;-54
2022/10/01 01:25:10;;;;;;;;;;;;;;;7.91;87.39;96620.91;30001;983;1877;-57
2022/10/01 01:26:12;;;;;;;;;;;;;;;7.89;87.14;96623.09;30001;983;1873;-56
2022/10/01 01:27:15;;;;;;;;;;;;;;;7.91;87.00;96614.72;30001;982;1877;-56
2022/10/01 01:28:13;;;;;;;;;;;;;;;7.94;86.76;96617.66;30001;982;1860;-55
2022/10/01 01:28:49;;;;;;;;;;;;;;;7.94;86.76;96620.34;30001;982;1873;-55
2022/10/01 01:29:31;;;;;;;;;;;;;;;7.93;86.81;96617.94;30001;983;1876;-56
2022/10/01 01:30:14;;;;;;;;;;;;;;;7.90;86.83;96613.91;30001;983;1792;-56
2022/10/01 01:30:48;;;;;;;;;;;;;;;7.97;86.59;96617.06;30001;983;1877;-57
2022/10/01 01:31:23;;;;;;;;;;;;;;;7.96;86.25;96618.19;30001;983;1881;-55
2022/10/01 01:33:05;;;;;;;;;;;;;;;8.04;85.53;96620.25;89988;930;16000;-54
2022/10/01 01:33:37;;;;;;;;;;;;;;;8.02;85.67;96617.03;30001;982;1868;-55
2022/10/01 01:34:11;;;;;;;;;;;;;;;8.08;85.31;96615.09;30001;982;1868;-56
2022/10/01 01:34:44;;;;;;;;;;;;;;;8.04;85.13;96617.56;30001;982;1882;-57
2022/10/01 01:35:35;;;;;;;;;;;;;;;8.05;85.17;96621.88;30001;982;1878;-55
2022/10/01 01:36:09;;;;;;;;;;;;;;;8.04;85.32;96609.44;30001;982;1877;-56
2022/10/01 01:36:43;;;;;;;;;;;;;;;8.01;85.32;96609.19;30001;983;1877;-57
2022/10/01 01:37:16;;;;;;;;;;;;;;;7.97;85.64;96613.59;30001;983;1881;-57
2022/10/01 01:37:51;;;;;;;;;;;;;;;7.97;85.54;96610.88;30001;983;1877;-54
2022/10/01 01:38:29;;;;;;;;;;;;;;;7.97;85.42;96616.28;30001;983;1881;-56
2022/10/01 01:39:02;;;;;;;;;;;;;;;7.99;85.80;96600.56;30001;983;1838;-55
2022/10/01 01:39:34;;;;;;;;;;;;;;;8.00;85.73;96600.28;30001;983;1873;-56
2022/10/01 01:40:09;;;;;;;;;;;;;;;8.02;85.22;96594.59;30001;983;1877;-56
2022/10/01 01:40:42;;;;;;;;;;;;;;;8.01;85.22;96593.00;30001;982;1881;-56
2022/10/01 01:41:14;;;;;;;;;;;;;;;8.11;85.16;96597.50;30001;982;1877;-55
2022/10/01 01:41:48;;;;;;;;;;;;;;;8.16;84.48;96600.16;30001;982;1882;-57
2022/10/01 01:42:22;;;;;;;;;;;;;;;8.17;84.32;96591.78;30001;982;1877;-54
2022/10/01 01:42:55;;;;;;;;;;;;;;;8.17;84.23;96591.78;30001;983;1881;-55
2022/10/01 01:43:30;;;;;;;;;;;;;;;8.18;84.28;96587.19;30001;983;1876;-56
2022/10/01 01:44:05;;;;;;;;;;;;;;;8.22;84.16;96583.62;30001;983;1868;-57
2022/10/01 01:44:38;;;;;;;;;;;;;;;8.22;83.74;96588.22;30001;983;1868;-56
2022/10/01 01:45:14;;;;;;;;;;;;;;;8.22;83.96;96583.62;30001;983;1881;-54
2022/10/01 01:45:48;;;;;;;;;;;;;;;8.20;83.88;96576.91;30001;983;1877;-55
2022/10/01 01:46:19;;;;;;;;;;;;;;;8.18;83.69;96582.59;30001;983;1881;-56
2022/10/01 01:46:51;;;;;;;;;;;;;;;8.15;83.99;96572.34;30001;983;1778;-56
2022/10/01 01:47:24;;;;;;;;;;;;;;;8.16;83.88;96573.16;30001;983;1881;-55
2022/10/01 01:47:56;;;;;;;;;;;;;;;8.13;83.83;96581.81;30001;982;1877;-54
2022/10/01 01:48:28;;;;;;;;;;;;;;;8.08;83.97;96575.38;30001;982;1881;-57
2022/10/01 01:49:00;;;;;;;;;;;;;;;8.05;84.59;96578.63;30001;982;1864;-57
2022/10/01 01:49:31;;;;;;;;;;;;;;;8.07;84.54;96581.88;30001;982;1873;-56
2022/10/01 01:50:04;;;;;;;;;;;;;;;8.07;84.33;96579.16;30001;982;1864;-55
2022/10/01 01:50:41;;;;;;;;;;;;;;;8.05;84.31;96581.34;30001;983;1872;-56
2022/10/01 01:51:30;;;;;;;;;;;;;;;8.14;84.07;96575.31;30001;983;1876;-56
2022/10/01 01:52:07;;;;;;;;;;;;;;;8.17;84.01;96574.75;30001;983;1881;-56
2022/10/01 01:52:38;;;;;;;;;;;;;;;8.16;84.13;96562.34;30001;983;1877;-55
2022/10/01 01:53:09;;;;;;;;;;;;;;;8.15;83.97;96571.53;30001;983;1881;-57
2022/10/01 01:53:40;;;;;;;;;;;;;;;8.14;83.82;96569.91;30001;957;1903;-56
2022/10/01 01:54:11;;;;;;;;;;;;;;;8.13;83.80;96569.13;30001;983;1881;-56
2022/10/01 01:54:48;;;;;;;;;;;;;;;8.10;83.66;96569.69;30001;983;1877;-56
2022/10/01 01:55:22;;;;;;;;;;;;;;;8.07;83.75;96568.34;30001;985;1865;-55
2022/10/01 01:55:56;;;;;;;;;;;;;;;8.11;83.88;96570.50;30001;982;1877;-55
2022/10/01 01:56:29;;;;;;;;;;;;;;;8.14;83.44;96573.44;30001;982;1882;-59
2022/10/01 01:57:03;;;;;;;;;;;;;;;8.12;83.76;96566.69;30001;982;1886;-55
2022/10/01 01:57:41;;;;;;;;;;;;;;;8.11;83.87;96559.69;30001;982;1882;-55
2022/10/01 01:58:12;;;;;;;;;;;;;;;8.05;84.01;96559.72;30001;983;1885;-56
2022/10/01 01:58:44;;;;;;;;;;;;;;;8.01;84.21;96565.97;30001;983;1881;-57
2022/10/01 01:59:18;;;;;;;;;;;;;;;7.98;84.48;96567.34;30001;983;1872;-55
2022/10/01 01:59:49;;;;;;;;;;;;;;;7.97;84.50;96554.94;30001;983;1859;-56
2022/10/01 02:00:21;;;;;;;;;;;;;;;8.07;84.64;96567.53;30001;983;1885;-56
2022/10/01 02:00:52;;;;;;;;;;;;;;;8.13;84.00;96562.91;30001;983;1881;-56
2022/10/01 02:01:33;;;;;;;;;;;;;;;8.13;83.89;96561.00;30001;983;1886;-55
2022/10/01 02:02:06;;;;;;;;;;;;;;;8.13;83.83;96563.72;30001;983;1881;-56
2022/10/01 02:02:40;;;;;;;;;;;;;;;8.12;83.63;96556.69;30001;983;1886;-56
2022/10/01 02:03:11;;;;;;;;;;;;;;;8.11;83.73;96559.69;30001;982;1869;-55
2022/10/01 02:03:42;;;;;;;;;;;;;;;8.06;84.03;96561.34;30001;982;1877;-55
2022/10/01 02:04:24;;;;;;;;;;;;;;;8.04;84.32;96555.41;30001;982;1882;-57
2022/10/01 02:04:59;;;;;;;;;;;;;;;8.04;84.57;96555.41;30001;982;1794;-56
2022/10/01 02:05:38;;;;;;;;;;;;;;;8.09;83.84;96554.56;30001;983;1881;-55
2022/10/01 02:06:17;;;;;;;;;;;;;;;8.08;83.85;96561.06;30001;983;1885;-55
2022/10/01 02:07:06;;;;;;;;;;;;;;;8.06;83.97;96558.63;30001;983;1868;-56
2022/10/01 02:07:57;;;;;;;;;;;;;;;8.04;84.11;96550.00;30001;986;1868;-55
2022/10/01 02:08:47;;;;;;;;;;;;;;;8.03;84.24;96553.00;30001;983;1881;-55
2022/10/01 02:09:29;;;;;;;;;;;;;;;8.01;84.52;96550.56;30001;983;1886;-55
2022/10/01 02:10:15;;;;;;;;;;;;;;;8.04;84.05;96560.81;30001;983;1881;-55
2022/10/01 02:11:12;;;;;;;;;;;;;;;8.02;84.08;96556.78;30001;982;1886;-56
2022/10/01 02:11:47;;;;;;;;;;;;;;;8.03;83.99;96553.00;30001;982;1877;-56
2022/10/01 02:12:50;;;;;;;;;;;;;;;8.02;84.04;96552.19;30001;982;1873;-54
2022/10/01 02:13:40;;;;;;;;;;;;;;;8.07;83.91;96560.25;30001;983;1854;-56
2022/10/01 02:14:27;;;;;;;;;;;;;;;8.14;83.35;96556.41;30001;983;1877;-56
2022/10/01 02:15:10;;;;;;;;;;;;;;;8.14;83.41;96553.72;30001;983;1881;-56
2022/10/01 02:16:06;;;;;;;;;;;;;;;8.14;83.49;96556.41;30001;983;1886;-55
2022/10/01 02:16:47;;;;;;;;;;;;;;;8.17;83.18;96558.53;30001;985;1881;-57
2022/10/01 02:17:41;;;;;;;;;;;;;;;8.18;82.82;96552.03;30001;982;1873;-56
2022/10/01 02:18:39;;;;;;;;;;;;;;;8.15;82.89;96549.91;30001;982;1868;-57
2022/10/01 02:19:48;;;;;;;;;;;;;;;8.07;83.35;96557.53;30001;982;1886;-56
2022/10/01 02:20:41;;;;;;;;;;;;;;;8.01;83.41;96547.87;30001;982;1877;-56
2022/10/01 02:21:19;;;;;;;;;;;;;;;7.96;84.07;96547.94;30001;983;1881;-56
2022/10/01 02:21:57;;;;;;;;;;;;;;;7.98;84.00;96551.13;30001;983;1881;-55
2022/10/01 02:22:37;;;;;;;;;;;;;;;8.01;83.54;96550.56;30001;983;1873;-56
2022/10/01 02:23:12;;;;;;;;;;;;;;;7.97;83.83;96557.63;30001;983;1872;-57
2022/10/01 02:23:48;;;;;;;;;;;;;;;7.95;84.03;96559.84;30001;986;1885;-56
2022/10/01 02:24:25;;;;;;;;;;;;;;;7.95;84.06;96546.31;30001;983;1882;-56
2022/10/01 02:24:57;;;;;;;;;;;;;;;7.94;83.89;96547.41;30001;982;1886;-56
2022/10/01 02:25:33;;;;;;;;;;;;;;;7.95;83.98;96540.13;30001;982;1881;-56
2022/10/01 02:26:09;;;;;;;;;;;;;;;7.96;84.29;96541.72;30001;982;1886;-56
2022/10/01 02:26:42;;;;;;;;;;;;;;;7.97;84.17;96546.81;30001;982;1882;-56
2022/10/01 02:27:23;;;;;;;;;;;;;;;7.94;84.28;96538.50;30001;982;1887;-56
2022/10/01 02:28:00;;;;;;;;;;;;;;;7.93;84.38;96539.59;30001;982;1869;-56
2022/10/01 02:28:32;;;;;;;;;;;;;;;7.97;84.02;96538.72;30001;983;1876;-56
2022/10/01 02:29:06;;;;;;;;;;;;;;;7.99;83.91;96541.94;30001;983;1881;-55
2022/10/01 02:29:39;;;;;;;;;;;;;;;8.03;83.64;96543.00;30001;983;1886;-56
2022/10/01 02:30:11;;;;;;;;;;;;;;;8.14;82.93;96548.31;30001;983;1881;-56
2022/10/01 02:30:43;;;;;;;;;;;;;;;8.14;82.79;96543.69;30001;983;1794;-58
2022/10/01 02:31:16;;;;;;;;;;;;;;;8.16;82.92;96540.72;30001;983;1881;-56
2022/10/01 02:31:52;;;;;;;;;;;;;;;8.16;82.62;96551.53;30001;983;1886;-56
2022/10/01 02:32:23;;;;;;;;;;;;;;;8.12;82.53;96545.06;30001;982;1882;-56
2022/10/01 02:32:58;;;;;;;;;;;;;;;8.09;83.04;96546.44;30001;982;1873;-56
2022/10/01 02:33:30;;;;;;;;;;;;;;;8.08;82.99;96551.03;30001;982;1873;-57
2022/10/01 02:34:03;;;;;;;;;;;;;;;8.12;82.43;96545.06;30001;982;1886;-55
2022/10/01 02:34:35;;;;;;;;;;;;;;;8.15;82.27;96544.50;30001;982;1882;-57
2022/10/01 02:35:08;;;;;;;;;;;;;;;8.12;82.41;96534.28;30001;982;1886;-55
2022/10/01 02:35:42;;;;;;;;;;;;;;;8.12;82.55;96545.06;30001;982;1882;-55
2022/10/01 02:36:14;;;;;;;;;;;;;;;8.13;82.17;96547.50;30001;983;1885;-55
2022/10/01 02:36:45;;;;;;;;;;;;;;;8.13;82.48;96541.28;30001;983;1881;-56
2022/10/01 02:37:18;;;;;;;;;;;;;;;8.14;82.45;96546.41;30001;983;1886;-57
2022/10/01 02:37:51;;;;;;;;;;;;;;;8.17;81.91;96548.53;30001;983;1881;-56
2022/10/01 02:38:23;;;;;;;;;;;;;;;8.20;81.94;96541.75;30001;983;1873;-56
2022/10/01 02:38:55;;;;;;;;;;;;;;;8.17;82.09;96548.53;30001;983;1873;-55
2022/10/01 02:39:28;;;;;;;;;;;;;;;8.12;82.28;96548.59;30001;983;1886;-56
2022/10/01 02:40:01;;;;;;;;;;;;;;;8.07;82.65;96544.03;30001;982;1882;-56
2022/10/01 02:40:35;;;;;;;;;;;;;;;8.04;82.48;96549.19;30001;982;1886;-55
2022/10/01 02:41:09;;;;;;;;;;;;;;;8.04;82.72;96544.59;30001;982;1882;-56
2022/10/01 02:41:41;;;;;;;;;;;;;;;8.01;82.70;96545.16;30001;982;1886;-57
2022/10/01 02:42:14;;;;;;;;;;;;;;;8.05;82.63;96545.41;30001;982;1882;-55
2022/10/01 02:42:48;;;;;;;;;;;;;;;8.03;82.46;96545.69;30001;982;1886;-55
2022/10/01 02:43:23;;;;;;;;;;;;;;;8.08;82.79;96548.34;30001;983;1881;-56
2022/10/01 02:44:00;;;;;;;;;;;;;;;8.16;82.42;96532.59;30001;983;1872;-55
2022/10/01 02:44:36;;;;;;;;;;;;;;;8.18;82.03;96549.34;30001;983;1872;-58
2022/10/01 02:45:08;;;;;;;;;;;;;;;8.14;81.77;96542.91;30001;983;1886;-56
2022/10/01 02:45:40;;;;;;;;;;;;;;;8.10;82.43;96544.56;30001;983;1881;-56
2022/10/01 02:46:20;;;;;;;;;;;;;;;8.08;82.37;96548.34;30001;983;1886;-57
2022/10/01 02:46:53;;;;;;;;;;;;;;;8.02;82.88;96538.66;30001;983;1881;-55
2022/10/01 02:47:27;;;;;;;;;;;;;;;8.02;82.57;96540.56;30001;983;1886;-56
2022/10/01 02:48:01;;;;;;;;;;;;;;;8.04;82.61;96539.19;30001;982;1882;-56
2022/10/01 02:48:33;;;;;;;;;;;;;;;8.07;81.96;96535.94;30001;982;1886;-56
2022/10/01 02:49:04;;;;;;;;;;;;;;;8.05;82.05;96540.00;30001;982;1869;-57
2022/10/01 02:49:38;;;;;;;;;;;;;;;8.02;82.19;96540.56;30001;982;1877;-56
2022/10/01 02:50:11;;;;;;;;;;;;;;;8.02;82.38;96540.56;30001;983;1881;-56
2022/10/01 02:50:50;;;;;;;;;;;;;;;8.03;82.47;96542.19;30001;983;1885;-55
2022/10/01 02:51:30;;;;;;;;;;;;;;;8.07;82.04;96535.94;30001;983;1881;-55
2022/10/01 02:52:26;;;;;;;;;;;;;;;8.05;81.94;96540.81;30001;983;1885;-56
2022/10/01 02:53:15;;;;;;;;;;;;;;;8.06;82.32;96541.63;30001;983;1877;-54
2022/10/01 02:53:49;;;;;;;;;;;;;;;8.14;81.55;96535.59;30001;983;1881;-56
2022/10/01 02:54:46;;;;;;;;;;;;;;;8.14;81.58;96540.19;30001;983;1868;-56
2022/10/01 02:55:19;;;;;;;;;;;;;;;8.10;81.33;96542.66;30001;986;1873;-55
2022/10/01 02:55:51;;;;;;;;;;;;;;;8.08;81.92;96534.03;30001;982;1846;-56
2022/10/01 02:57:45;;;;;;;;;;;;;;;8.12;81.75;96531.56;30001;983;1872;-58
2022/10/01 02:58:17;;;;;;;;;;;;;;;8.17;81.49;96528.81;30001;983;1885;-58
2022/10/01 02:58:51;;;;;;;;;;;;;;;8.16;81.42;96528.00;30001;983;1881;-55
2022/10/01 02:59:22;;;;;;;;;;;;;;;8.12;81.76;96524.25;30001;983;1872;-56
2022/10/01 02:59:56;;;;;;;;;;;;;;;8.09;81.85;96530.25;30001;983;1873;-56
2022/10/01 03:00:28;;;;;;;;;;;;;;;8.07;81.75;96533.22;30001;983;1886;-57
2022/10/01 03:00:59;;;;;;;;;;;;;;;8.12;81.51;96526.97;30001;983;1881;-56
2022/10/01 03:01:30;;;;;;;;;;;;;;;8.17;81.10;96531.53;30001;983;1886;-56
2022/10/01 03:02:00;;;;;;;;;;;;;;;8.20;80.92;96530.94;30001;983;1881;-57
2022/10/01 03:02:31;;;;;;;;;;;;;;;8.18;81.21;96527.72;30001;983;1886;-56
2022/10/01 03:03:02;;;;;;;;;;;;;;;8.16;80.93;96524.50;30001;982;1882;-56
2022/10/01 03:03:34;;;;;;;;;;;;;;;8.15;81.08;96528.28;30001;982;1886;-56
2022/10/01 03:04:05;;;;;;;;;;;;;;;8.19;81.07;96534.75;30001;982;1788;-56
2022/10/01 03:04:37;;;;;;;;;;;;;;;8.16;81.00;96529.91;30001;982;1873;-56
2022/10/01 03:05:08;;;;;;;;;;;;;;;8.12;81.14;96539.69;30001;983;1872;-56
2022/10/01 03:05:39;;;;;;;;;;;;;;;8.11;81.19;96535.34;30001;983;1885;-56
2022/10/01 03:06:10;;;;;;;;;;;;;;;8.08;81.48;96537.53;30001;983;1881;-56
2022/10/01 03:06:41;;;;;;;;;;;;;;;8.11;81.24;96530.75;30001;983;1885;-56
2022/10/01 03:07:12;;;;;;;;;;;;;;;8.11;81.47;96535.34;30001;983;1881;-56
2022/10/01 03:07:43;;;;;;;;;;;;;;;8.11;81.20;96532.66;30001;983;1886;-56
2022/10/01 03:08:14;;;;;;;;;;;;;;;8.10;81.43;96536.44;30001;983;1881;-56
2022/10/01 03:08:45;;;;;;;;;;;;;;;8.12;81.03;96529.66;30001;983;1886;-57
2022/10/01 03:09:16;;;;;;;;;;;;;;;8.11;81.39;96538.06;30001;983;1882;-56
2022/10/01 03:09:48;;;;;;;;;;;;;;;8.14;81.25;96535.59;30001;983;1873;-57
2022/10/01 03:10:19;;;;;;;;;;;;;;;8.23;80.88;96533.09;30001;982;1873;-55
2022/10/01 03:10:49;;;;;;;;;;;;;;;8.21;80.37;96527.16;30001;982;1886;-57
2022/10/01 03:11:20;;;;;;;;;;;;;;;8.28;80.52;96523.03;30001;982;1882;-56
2022/10/01 03:11:51;;;;;;;;;;;;;;;8.31;80.01;96525.16;30001;982;1886;-55
2022/10/01 03:12:23;;;;;;;;;;;;;;;8.31;80.35;96521.66;30001;982;1882;-56
2022/10/01 03:12:55;;;;;;;;;;;;;;;8.28;80.33;96527.63;30001;983;1885;-57
2022/10/01 03:13:26;;;;;;;;;;;;;;;8.24;80.37;96527.41;30001;983;1881;-57
2022/10/01 03:13:57;;;;;;;;;;;;;;;8.27;80.21;96517.91;30001;983;1885;-55
2022/10/01 03:14:28;;;;;;;;;;;;;;;8.30;79.83;96522.75;30001;983;1881;-56